sensor_id;sensor_type;location;lat;lon;timestamp;P1;durP1;ratioP1;P2;durP2;ratioP2
11616;SDS011;5864;52.998;9.068;2023-06-01T00:00:48;12.70;;;5.23;;
11616;SDS011;5864;52.998;9.068;2023-06-01T00:03:34;10.10;;;5.40;;
11616;SDS011;5864;52.998;9.068;2023-06-01T00:06:21;9.83;;;4.73;;
11616;SDS011;5864;52.998;9.068;2023-06-01T00:09:07;8.37;;;5.33;;
11616;SDS011;5864;52.998;9.068;2023-06-01T00:11:52;8.67;;;5.00;;
11616;SDS011;5864;52.998;9.068;2023-06-01T00:14:39;11.03;;;5.50;;
11616;SDS011;5864;52.998;9.068;2023-06-01T00:17:25;12.80;;;5.50;;
11616;SDS011;5864;52.998;9.068;2023-06-01T00:20:12;12.83;;;5.23;;
11616;SDS011;5864;52.998;9.068;2023-06-01T00:22:58;9.10;;;4.57;;
11616;SDS011;5864;52.998;9.068;2023-06-01T00:25:44;13.77;;;5.53;;
11616;SDS011;5864;52.998;9.068;2023-06-01T00:28:30;11.20;;;5.40;;
11616;SDS011;5864;52.998;9.068;2023-06-01T00:31:18;12.03;;;5.70;;
11616;SDS011;5864;52.998;9.068;2023-06-01T00:34:03;12.73;;;5.10;;
11616;SDS011;5864;52.998;9.068;2023-06-01T00:36:49;9.60;;;4.90;;
11616;SDS011;5864;52.998;9.068;2023-06-01T00:39:34;9.83;;;5.00;;
11616;SDS011;5864;52.998;9.068;2023-06-01T00:42:20;10.50;;;4.87;;
11616;SDS011;5864;52.998;9.068;2023-06-01T00:45:06;9.87;;;5.10;;
11616;SDS011;5864;52.998;9.068;2023-06-01T00:47:54;8.33;;;4.73;;
11616;SDS011;5864;52.998;9.068;2023-06-01T00:50:39;8.97;;;4.63;;
11616;SDS011;5864;52.998;9.068;2023-06-01T00:53:26;13.03;;;5.10;;
11616;SDS011;5864;52.998;9.068;2023-06-01T00:56:12;14.17;;;4.87;;
11616;SDS011;5864;52.998;9.068;2023-06-01T00:58:58;11.13;;;4.80;;
11616;SDS011;5864;52.998;9.068;2023-06-01T01:01:44;14.37;;;5.37;;
11616;SDS011;5864;52.998;9.068;2023-06-01T01:04:32;10.80;;;4.70;;
11616;SDS011;5864;52.998;9.068;2023-06-01T01:07:19;12.83;;;5.33;;
11616;SDS011;5864;52.998;9.068;2023-06-01T01:10:11;9.37;;;4.57;;
11616;SDS011;5864;52.998;9.068;2023-06-01T01:13:06;11.37;;;4.23;;
11616;SDS011;5864;52.998;9.068;2023-06-01T01:15:58;9.77;;;4.07;;
11616;SDS011;5864;52.998;9.068;2023-06-01T01:18:49;7.40;;;3.90;;
11616;SDS011;5864;52.998;9.068;2023-06-01T01:21:39;10.23;;;4.10;;
11616;SDS011;5864;52.998;9.068;2023-06-01T01:24:34;9.93;;;4.03;;
11616;SDS011;5864;52.998;9.068;2023-06-01T01:27:30;8.93;;;4.70;;
11616;SDS011;5864;52.998;9.068;2023-06-01T01:30:26;9.13;;;3.67;;
11616;SDS011;5864;52.998;9.068;2023-06-01T01:33:13;8.63;;;3.63;;
11616;SDS011;5864;52.998;9.068;2023-06-01T01:35:59;6.83;;;3.57;;
11616;SDS011;5864;52.998;9.068;2023-06-01T01:38:46;6.70;;;3.37;;
11616;SDS011;5864;52.998;9.068;2023-06-01T01:41:32;6.93;;;3.57;;
11616;SDS011;5864;52.998;9.068;2023-06-01T01:44:18;6.30;;;3.50;;
11616;SDS011;5864;52.998;9.068;2023-06-01T01:47:06;6.10;;;3.43;;
11616;SDS011;5864;52.998;9.068;2023-06-01T01:49:58;5.00;;;3.27;;
11616;SDS011;5864;52.998;9.068;2023-06-01T01:52:47;7.43;;;4.00;;
11616;SDS011;5864;52.998;9.068;2023-06-01T01:55:34;10.53;;;4.30;;
11616;SDS011;5864;52.998;9.068;2023-06-01T01:58:20;10.77;;;4.50;;
11616;SDS011;5864;52.998;9.068;2023-06-01T02:01:07;8.20;;;4.67;;
11616;SDS011;5864;52.998;9.068;2023-06-01T02:03:58;7.20;;;4.47;;
11616;SDS011;5864;52.998;9.068;2023-06-01T02:06:45;7.13;;;4.00;;
11616;SDS011;5864;52.998;9.068;2023-06-01T02:09:31;7.53;;;4.50;;
11616;SDS011;5864;52.998;9.068;2023-06-01T02:12:16;9.17;;;4.07;;
11616;SDS011;5864;52.998;9.068;2023-06-01T02:15:02;8.33;;;4.00;;
11616;SDS011;5864;52.998;9.068;2023-06-01T02:17:48;11.63;;;4.37;;
11616;SDS011;5864;52.998;9.068;2023-06-01T02:20:36;10.93;;;4.73;;
11616;SDS011;5864;52.998;9.068;2023-06-01T02:23:22;8.03;;;3.90;;
11616;SDS011;5864;52.998;9.068;2023-06-01T02:26:08;6.13;;;4.10;;
11616;SDS011;5864;52.998;9.068;2023-06-01T02:28:54;7.73;;;4.17;;
11616;SDS011;5864;52.998;9.068;2023-06-01T02:31:40;8.90;;;4.47;;
11616;SDS011;5864;52.998;9.068;2023-06-01T02:34:26;8.10;;;4.33;;
11616;SDS011;5864;52.998;9.068;2023-06-01T02:37:13;8.23;;;5.00;;
11616;SDS011;5864;52.998;9.068;2023-06-01T02:39:58;9.77;;;4.67;;
11616;SDS011;5864;52.998;9.068;2023-06-01T02:42:44;6.63;;;4.37;;
11616;SDS011;5864;52.998;9.068;2023-06-01T02:45:30;8.70;;;4.30;;
11616;SDS011;5864;52.998;9.068;2023-06-01T02:48:16;9.07;;;4.67;;
11616;SDS011;5864;52.998;9.068;2023-06-01T02:51:02;10.13;;;4.10;;
11616;SDS011;5864;52.998;9.068;2023-06-01T02:53:49;8.73;;;4.20;;
11616;SDS011;5864;52.998;9.068;2023-06-01T02:56:34;11.33;;;4.67;;
11616;SDS011;5864;52.998;9.068;2023-06-01T02:59:20;10.27;;;4.77;;
11616;SDS011;5864;52.998;9.068;2023-06-01T03:02:06;10.50;;;4.83;;
11616;SDS011;5864;52.998;9.068;2023-06-01T03:04:52;9.17;;;4.40;;
11616;SDS011;5864;52.998;9.068;2023-06-01T03:07:38;12.07;;;4.73;;
11616;SDS011;5864;52.998;9.068;2023-06-01T03:10:25;7.93;;;4.13;;
11616;SDS011;5864;52.998;9.068;2023-06-01T03:13:11;8.90;;;5.13;;
11616;SDS011;5864;52.998;9.068;2023-06-01T03:15:57;11.53;;;4.80;;
11616;SDS011;5864;52.998;9.068;2023-06-01T03:18:42;10.50;;;3.90;;
11616;SDS011;5864;52.998;9.068;2023-06-01T03:21:28;9.13;;;4.50;;
11616;SDS011;5864;52.998;9.068;2023-06-01T03:24:15;9.50;;;5.23;;
11616;SDS011;5864;52.998;9.068;2023-06-01T03:27:04;8.20;;;4.17;;
11616;SDS011;5864;52.998;9.068;2023-06-01T03:29:50;11.33;;;4.33;;
11616;SDS011;5864;52.998;9.068;2023-06-01T03:32:36;7.17;;;4.73;;
11616;SDS011;5864;52.998;9.068;2023-06-01T03:35:22;7.70;;;4.30;;
11616;SDS011;5864;52.998;9.068;2023-06-01T03:38:08;14.47;;;5.23;;
11616;SDS011;5864;52.998;9.068;2023-06-01T03:40:54;11.63;;;5.10;;
11616;SDS011;5864;52.998;9.068;2023-06-01T03:43:40;8.80;;;5.07;;
11616;SDS011;5864;52.998;9.068;2023-06-01T03:46:26;9.53;;;4.30;;
11616;SDS011;5864;52.998;9.068;2023-06-01T03:49:12;8.97;;;4.20;;
11616;SDS011;5864;52.998;9.068;2023-06-01T03:51:57;11.13;;;4.70;;
11616;SDS011;5864;52.998;9.068;2023-06-01T03:54:43;10.53;;;4.90;;
11616;SDS011;5864;52.998;9.068;2023-06-01T03:57:29;8.33;;;5.13;;
11616;SDS011;5864;52.998;9.068;2023-06-01T04:00:16;12.57;;;4.90;;
11616;SDS011;5864;52.998;9.068;2023-06-01T04:03:02;8.87;;;4.63;;
11616;SDS011;5864;52.998;9.068;2023-06-01T04:05:50;11.47;;;5.40;;
11616;SDS011;5864;52.998;9.068;2023-06-01T04:08:42;15.10;;;5.13;;
11616;SDS011;5864;52.998;9.068;2023-06-01T04:11:32;12.37;;;5.27;;
11616;SDS011;5864;52.998;9.068;2023-06-01T04:14:19;9.17;;;4.43;;
11616;SDS011;5864;52.998;9.068;2023-06-01T04:17:07;8.43;;;4.83;;
11616;SDS011;5864;52.998;9.068;2023-06-01T04:19:52;12.17;;;5.47;;
11616;SDS011;5864;52.998;9.068;2023-06-01T04:22:38;11.30;;;5.07;;
11616;SDS011;5864;52.998;9.068;2023-06-01T04:25:24;12.60;;;5.93;;
11616;SDS011;5864;52.998;9.068;2023-06-01T04:28:12;11.03;;;5.77;;
11616;SDS011;5864;52.998;9.068;2023-06-01T04:30:58;12.33;;;5.87;;
11616;SDS011;5864;52.998;9.068;2023-06-01T04:33:45;14.50;;;6.57;;
11616;SDS011;5864;52.998;9.068;2023-06-01T04:36:36;11.33;;;6.03;;
11616;SDS011;5864;52.998;9.068;2023-06-01T04:39:22;13.80;;;5.83;;
11616;SDS011;5864;52.998;9.068;2023-06-01T04:42:09;14.13;;;6.63;;
11616;SDS011;5864;52.998;9.068;2023-06-01T04:44:57;12.33;;;5.80;;
11616;SDS011;5864;52.998;9.068;2023-06-01T04:47:43;13.07;;;6.17;;
11616;SDS011;5864;52.998;9.068;2023-06-01T04:50:31;11.40;;;5.70;;
11616;SDS011;5864;52.998;9.068;2023-06-01T04:53:17;12.77;;;6.27;;
11616;SDS011;5864;52.998;9.068;2023-06-01T04:56:03;8.03;;;5.77;;
11616;SDS011;5864;52.998;9.068;2023-06-01T04:58:49;14.27;;;6.17;;
11616;SDS011;5864;52.998;9.068;2023-06-01T05:01:35;9.80;;;6.13;;
11616;SDS011;5864;52.998;9.068;2023-06-01T05:04:22;9.97;;;6.20;;
11616;SDS011;5864;52.998;9.068;2023-06-01T05:07:09;12.70;;;6.37;;
11616;SDS011;5864;52.998;9.068;2023-06-01T05:09:55;10.07;;;5.33;;
11616;SDS011;5864;52.998;9.068;2023-06-01T05:12:41;11.87;;;5.53;;
11616;SDS011;5864;52.998;9.068;2023-06-01T05:15:27;11.33;;;5.20;;
11616;SDS011;5864;52.998;9.068;2023-06-01T05:18:14;10.80;;;5.30;;
11616;SDS011;5864;52.998;9.068;2023-06-01T05:21:00;15.73;;;5.60;;
11616;SDS011;5864;52.998;9.068;2023-06-01T05:23:48;8.23;;;4.83;;
11616;SDS011;5864;52.998;9.068;2023-06-01T05:26:33;9.17;;;5.27;;
11616;SDS011;5864;52.998;9.068;2023-06-01T05:29:19;12.33;;;4.97;;
11616;SDS011;5864;52.998;9.068;2023-06-01T05:32:05;13.07;;;5.00;;
11616;SDS011;5864;52.998;9.068;2023-06-01T05:34:52;8.17;;;4.73;;
11616;SDS011;5864;52.998;9.068;2023-06-01T05:37:38;10.23;;;4.90;;
11616;SDS011;5864;52.998;9.068;2023-06-01T05:40:26;7.87;;;4.27;;
11616;SDS011;5864;52.998;9.068;2023-06-01T05:43:11;9.37;;;4.43;;
11616;SDS011;5864;52.998;9.068;2023-06-01T05:45:56;8.77;;;4.10;;
11616;SDS011;5864;52.998;9.068;2023-06-01T05:48:42;8.23;;;3.90;;
11616;SDS011;5864;52.998;9.068;2023-06-01T05:51:28;12.40;;;4.63;;
11616;SDS011;5864;52.998;9.068;2023-06-01T05:54:13;9.07;;;3.80;;
11616;SDS011;5864;52.998;9.068;2023-06-01T05:57:00;7.83;;;3.90;;
11616;SDS011;5864;52.998;9.068;2023-06-01T05:59:46;8.03;;;4.13;;
11616;SDS011;5864;52.998;9.068;2023-06-01T06:02:31;7.43;;;4.30;;
11616;SDS011;5864;52.998;9.068;2023-06-01T06:05:17;8.97;;;3.93;;
11616;SDS011;5864;52.998;9.068;2023-06-01T06:08:03;8.43;;;4.93;;
11616;SDS011;5864;52.998;9.068;2023-06-01T06:10:49;8.33;;;4.43;;
11616;SDS011;5864;52.998;9.068;2023-06-01T06:13:36;7.67;;;3.73;;
11616;SDS011;5864;52.998;9.068;2023-06-01T06:16:22;11.73;;;4.67;;
11616;SDS011;5864;52.998;9.068;2023-06-01T06:19:08;10.13;;;4.17;;
11616;SDS011;5864;52.998;9.068;2023-06-01T06:21:53;5.63;;;3.73;;
11616;SDS011;5864;52.998;9.068;2023-06-01T06:24:39;6.97;;;3.80;;
11616;SDS011;5864;52.998;9.068;2023-06-01T06:27:25;4.87;;;3.70;;
11616;SDS011;5864;52.998;9.068;2023-06-01T06:30:13;12.23;;;3.33;;
11616;SDS011;5864;52.998;9.068;2023-06-01T06:32:58;5.17;;;3.20;;
11616;SDS011;5864;52.998;9.068;2023-06-01T06:35:44;4.67;;;3.10;;
11616;SDS011;5864;52.998;9.068;2023-06-01T06:38:30;6.63;;;2.50;;
11616;SDS011;5864;52.998;9.068;2023-06-01T06:41:15;7.40;;;3.50;;
11616;SDS011;5864;52.998;9.068;2023-06-01T06:44:01;7.23;;;3.43;;
11616;SDS011;5864;52.998;9.068;2023-06-01T06:46:48;4.80;;;3.67;;
11616;SDS011;5864;52.998;9.068;2023-06-01T06:49:33;8.03;;;3.70;;
11616;SDS011;5864;52.998;9.068;2023-06-01T06:52:19;8.07;;;3.80;;
11616;SDS011;5864;52.998;9.068;2023-06-01T06:55:05;6.03;;;3.77;;
11616;SDS011;5864;52.998;9.068;2023-06-01T06:57:51;6.80;;;3.90;;
11616;SDS011;5864;52.998;9.068;2023-06-01T07:00:37;8.40;;;4.37;;
11616;SDS011;5864;52.998;9.068;2023-06-01T07:03:24;7.67;;;3.70;;
11616;SDS011;5864;52.998;9.068;2023-06-01T07:06:10;10.43;;;3.73;;
11616;SDS011;5864;52.998;9.068;2023-06-01T07:08:55;10.23;;;3.93;;
11616;SDS011;5864;52.998;9.068;2023-06-01T07:11:42;10.80;;;4.60;;
11616;SDS011;5864;52.998;9.068;2023-06-01T07:14:28;8.80;;;4.10;;
11616;SDS011;5864;52.998;9.068;2023-06-01T07:17:14;10.47;;;3.87;;
11616;SDS011;5864;52.998;9.068;2023-06-01T07:20:01;9.90;;;3.90;;
11616;SDS011;5864;52.998;9.068;2023-06-01T07:22:50;10.57;;;3.80;;
11616;SDS011;5864;52.998;9.068;2023-06-01T07:25:36;7.93;;;3.93;;
11616;SDS011;5864;52.998;9.068;2023-06-01T07:28:21;10.47;;;3.63;;
11616;SDS011;5864;52.998;9.068;2023-06-01T07:31:10;5.70;;;3.27;;
11616;SDS011;5864;52.998;9.068;2023-06-01T07:33:56;10.00;;;3.63;;
11616;SDS011;5864;52.998;9.068;2023-06-01T07:36:43;6.60;;;3.03;;
11616;SDS011;5864;52.998;9.068;2023-06-01T07:39:31;8.03;;;3.50;;
11616;SDS011;5864;52.998;9.068;2023-06-01T07:42:17;7.60;;;3.77;;
11616;SDS011;5864;52.998;9.068;2023-06-01T07:45:04;5.53;;;3.33;;
11616;SDS011;5864;52.998;9.068;2023-06-01T07:47:52;8.30;;;3.73;;
11616;SDS011;5864;52.998;9.068;2023-06-01T07:50:38;6.93;;;3.57;;
11616;SDS011;5864;52.998;9.068;2023-06-01T07:53:25;4.40;;;2.70;;
11616;SDS011;5864;52.998;9.068;2023-06-01T07:56:11;7.03;;;2.97;;
11616;SDS011;5864;52.998;9.068;2023-06-01T07:58:57;5.43;;;3.17;;
11616;SDS011;5864;52.998;9.068;2023-06-01T08:01:42;6.20;;;3.27;;
11616;SDS011;5864;52.998;9.068;2023-06-01T08:04:28;6.77;;;2.90;;
11616;SDS011;5864;52.998;9.068;2023-06-01T08:07:17;6.00;;;3.13;;
11616;SDS011;5864;52.998;9.068;2023-06-01T08:10:05;4.80;;;2.97;;
11616;SDS011;5864;52.998;9.068;2023-06-01T08:12:52;8.00;;;3.30;;
11616;SDS011;5864;52.998;9.068;2023-06-01T08:15:39;5.50;;;2.93;;
11616;SDS011;5864;52.998;9.068;2023-06-01T08:18:26;7.37;;;3.30;;
11616;SDS011;5864;52.998;9.068;2023-06-01T08:21:12;5.77;;;3.27;;
11616;SDS011;5864;52.998;9.068;2023-06-01T08:23:58;5.30;;;3.57;;
11616;SDS011;5864;52.998;9.068;2023-06-01T08:26:46;8.50;;;3.40;;
11616;SDS011;5864;52.998;9.068;2023-06-01T08:29:32;6.90;;;4.00;;
11616;SDS011;5864;52.998;9.068;2023-06-01T08:32:18;4.77;;;3.03;;
11616;SDS011;5864;52.998;9.068;2023-06-01T08:35:04;10.90;;;3.40;;
11616;SDS011;5864;52.998;9.068;2023-06-01T08:37:51;7.57;;;4.17;;
11616;SDS011;5864;52.998;9.068;2023-06-01T08:40:37;6.33;;;3.77;;
11616;SDS011;5864;52.998;9.068;2023-06-01T08:43:28;8.17;;;3.67;;
11616;SDS011;5864;52.998;9.068;2023-06-01T08:46:17;7.70;;;3.73;;
11616;SDS011;5864;52.998;9.068;2023-06-01T08:49:05;6.10;;;3.30;;
11616;SDS011;5864;52.998;9.068;2023-06-01T08:51:53;8.73;;;3.43;;
11616;SDS011;5864;52.998;9.068;2023-06-01T08:54:44;5.73;;;3.50;;
11616;SDS011;5864;52.998;9.068;2023-06-01T08:57:30;10.67;;;4.33;;
11616;SDS011;5864;52.998;9.068;2023-06-01T09:00:17;9.30;;;3.63;;
11616;SDS011;5864;52.998;9.068;2023-06-01T09:03:04;8.63;;;3.70;;
11616;SDS011;5864;52.998;9.068;2023-06-01T09:05:50;8.33;;;3.97;;
11616;SDS011;5864;52.998;9.068;2023-06-01T09:08:36;6.13;;;3.70;;
11616;SDS011;5864;52.998;9.068;2023-06-01T09:11:22;6.77;;;3.47;;
11616;SDS011;5864;52.998;9.068;2023-06-01T09:14:20;6.30;;;3.73;;
11616;SDS011;5864;52.998;9.068;2023-06-01T09:17:07;6.87;;;3.60;;
11616;SDS011;5864;52.998;9.068;2023-06-01T09:19:57;8.97;;;3.67;;
11616;SDS011;5864;52.998;9.068;2023-06-01T09:22:43;9.17;;;4.07;;
11616;SDS011;5864;52.998;9.068;2023-06-01T09:25:31;7.40;;;4.13;;
11616;SDS011;5864;52.998;9.068;2023-06-01T09:28:17;9.47;;;4.07;;
11616;SDS011;5864;52.998;9.068;2023-06-01T09:31:04;9.20;;;4.13;;
11616;SDS011;5864;52.998;9.068;2023-06-01T09:33:56;6.57;;;4.07;;
11616;SDS011;5864;52.998;9.068;2023-06-01T09:36:45;6.40;;;3.83;;
11616;SDS011;5864;52.998;9.068;2023-06-01T09:39:32;7.57;;;3.57;;
11616;SDS011;5864;52.998;9.068;2023-06-01T09:42:18;7.13;;;3.37;;
11616;SDS011;5864;52.998;9.068;2023-06-01T09:45:17;8.70;;;4.07;;
11616;SDS011;5864;52.998;9.068;2023-06-01T09:48:17;6.00;;;3.20;;
11616;SDS011;5864;52.998;9.068;2023-06-01T09:51:04;6.23;;;3.13;;
11616;SDS011;5864;52.998;9.068;2023-06-01T09:54:05;5.83;;;3.03;;
11616;SDS011;5864;52.998;9.068;2023-06-01T09:56:51;6.23;;;3.00;;
11616;SDS011;5864;52.998;9.068;2023-06-01T09:59:38;7.00;;;3.27;;
11616;SDS011;5864;52.998;9.068;2023-06-01T10:02:25;5.63;;;3.00;;
11616;SDS011;5864;52.998;9.068;2023-06-01T10:05:11;4.33;;;2.97;;
11616;SDS011;5864;52.998;9.068;2023-06-01T10:07:59;5.77;;;3.00;;
11616;SDS011;5864;52.998;9.068;2023-06-01T10:10:47;8.80;;;3.70;;
11616;SDS011;5864;52.998;9.068;2023-06-01T10:13:34;7.00;;;2.73;;
11616;SDS011;5864;52.998;9.068;2023-06-01T10:16:20;5.37;;;2.90;;
11616;SDS011;5864;52.998;9.068;2023-06-01T10:19:06;5.53;;;2.90;;
11616;SDS011;5864;52.998;9.068;2023-06-01T10:21:52;5.90;;;3.30;;
11616;SDS011;5864;52.998;9.068;2023-06-01T10:24:42;5.93;;;3.53;;
11616;SDS011;5864;52.998;9.068;2023-06-01T10:27:29;6.37;;;2.83;;
11616;SDS011;5864;52.998;9.068;2023-06-01T10:30:20;10.70;;;3.27;;
11616;SDS011;5864;52.998;9.068;2023-06-01T10:33:06;8.60;;;3.50;;
11616;SDS011;5864;52.998;9.068;2023-06-01T10:35:52;8.57;;;3.33;;
11616;SDS011;5864;52.998;9.068;2023-06-01T10:38:38;4.33;;;2.90;;
11616;SDS011;5864;52.998;9.068;2023-06-01T10:41:26;5.47;;;2.90;;
11616;SDS011;5864;52.998;9.068;2023-06-01T10:47:45;10.83;;;3.13;;
11616;SDS011;5864;52.998;9.068;2023-06-01T10:50:34;5.60;;;2.40;;
11616;SDS011;5864;52.998;9.068;2023-06-01T10:53:24;10.40;;;3.50;;
11616;SDS011;5864;52.998;9.068;2023-06-01T10:56:18;7.53;;;3.00;;
11616;SDS011;5864;52.998;9.068;2023-06-01T10:59:13;7.07;;;3.00;;
11616;SDS011;5864;52.998;9.068;2023-06-01T11:02:02;6.73;;;3.13;;
11616;SDS011;5864;52.998;9.068;2023-06-01T11:04:49;14.13;;;3.07;;
11616;SDS011;5864;52.998;9.068;2023-06-01T11:07:35;6.60;;;3.53;;
11616;SDS011;5864;52.998;9.068;2023-06-01T11:13:39;4.73;;;2.93;;
11616;SDS011;5864;52.998;9.068;2023-06-01T11:16:30;6.43;;;3.20;;
11616;SDS011;5864;52.998;9.068;2023-06-01T11:19:16;7.70;;;3.47;;
11616;SDS011;5864;52.998;9.068;2023-06-01T11:22:04;13.73;;;4.10;;
11616;SDS011;5864;52.998;9.068;2023-06-01T11:24:51;7.30;;;3.37;;
11616;SDS011;5864;52.998;9.068;2023-06-01T11:27:43;7.63;;;3.20;;
11616;SDS011;5864;52.998;9.068;2023-06-01T11:30:29;8.50;;;3.17;;
11616;SDS011;5864;52.998;9.068;2023-06-01T11:33:16;8.00;;;3.03;;
11616;SDS011;5864;52.998;9.068;2023-06-01T11:36:02;5.17;;;2.83;;
11616;SDS011;5864;52.998;9.068;2023-06-01T11:38:50;6.70;;;2.60;;
11616;SDS011;5864;52.998;9.068;2023-06-01T11:41:36;6.03;;;3.10;;
11616;SDS011;5864;52.998;9.068;2023-06-01T11:44:22;6.10;;;2.70;;
11616;SDS011;5864;52.998;9.068;2023-06-01T11:47:08;5.40;;;2.93;;
11616;SDS011;5864;52.998;9.068;2023-06-01T11:49:57;7.87;;;3.03;;
11616;SDS011;5864;52.998;9.068;2023-06-01T11:52:42;6.33;;;2.90;;
11616;SDS011;5864;52.998;9.068;2023-06-01T11:55:28;8.00;;;3.10;;
11616;SDS011;5864;52.998;9.068;2023-06-01T11:58:14;9.07;;;3.37;;
11616;SDS011;5864;52.998;9.068;2023-06-01T12:01:05;5.40;;;3.17;;
11616;SDS011;5864;52.998;9.068;2023-06-01T12:03:51;7.23;;;3.40;;
11616;SDS011;5864;52.998;9.068;2023-06-01T12:06:38;8.67;;;3.40;;
11616;SDS011;5864;52.998;9.068;2023-06-01T12:09:23;6.97;;;3.53;;
11616;SDS011;5864;52.998;9.068;2023-06-01T12:12:09;6.77;;;3.10;;
11616;SDS011;5864;52.998;9.068;2023-06-01T12:14:55;6.60;;;3.13;;
11616;SDS011;5864;52.998;9.068;2023-06-01T12:17:45;7.90;;;3.20;;
11616;SDS011;5864;52.998;9.068;2023-06-01T12:20:33;7.60;;;4.07;;
11616;SDS011;5864;52.998;9.068;2023-06-01T12:23:21;6.23;;;3.20;;
11616;SDS011;5864;52.998;9.068;2023-06-01T12:26:06;9.47;;;3.20;;
11616;SDS011;5864;52.998;9.068;2023-06-01T12:28:52;4.03;;;3.07;;
11616;SDS011;5864;52.998;9.068;2023-06-01T12:31:39;5.93;;;3.03;;
11616;SDS011;5864;52.998;9.068;2023-06-01T12:34:36;7.10;;;3.53;;
11616;SDS011;5864;52.998;9.068;2023-06-01T12:37:22;7.77;;;3.80;;
11616;SDS011;5864;52.998;9.068;2023-06-01T12:40:10;8.83;;;3.73;;
11616;SDS011;5864;52.998;9.068;2023-06-01T12:43:17;5.93;;;3.47;;
11616;SDS011;5864;52.998;9.068;2023-06-01T12:46:04;17.10;;;4.13;;
11616;SDS011;5864;52.998;9.068;2023-06-01T12:48:50;6.63;;;3.00;;
11616;SDS011;5864;52.998;9.068;2023-06-01T12:51:37;6.40;;;3.10;;
11616;SDS011;5864;52.998;9.068;2023-06-01T12:54:23;9.10;;;3.93;;
11616;SDS011;5864;52.998;9.068;2023-06-01T12:57:13;8.23;;;4.70;;
11616;SDS011;5864;52.998;9.068;2023-06-01T12:59:58;7.13;;;4.07;;
11616;SDS011;5864;52.998;9.068;2023-06-01T13:02:44;7.70;;;3.80;;
11616;SDS011;5864;52.998;9.068;2023-06-01T13:05:32;9.53;;;3.20;;
11616;SDS011;5864;52.998;9.068;2023-06-01T13:08:18;8.27;;;3.00;;
11616;SDS011;5864;52.998;9.068;2023-06-01T13:11:04;7.83;;;3.93;;
11616;SDS011;5864;52.998;9.068;2023-06-01T13:13:51;10.07;;;4.47;;
11616;SDS011;5864;52.998;9.068;2023-06-01T13:16:37;8.53;;;3.83;;
11616;SDS011;5864;52.998;9.068;2023-06-01T13:19:23;9.97;;;3.63;;
11616;SDS011;5864;52.998;9.068;2023-06-01T13:22:08;9.17;;;3.90;;
11616;SDS011;5864;52.998;9.068;2023-06-01T13:24:54;5.60;;;3.47;;
11616;SDS011;5864;52.998;9.068;2023-06-01T13:27:40;11.60;;;3.97;;
11616;SDS011;5864;52.998;9.068;2023-06-01T13:30:27;6.57;;;3.20;;
11616;SDS011;5864;52.998;9.068;2023-06-01T13:33:13;9.57;;;3.70;;
11616;SDS011;5864;52.998;9.068;2023-06-01T13:35:59;6.50;;;3.37;;
11616;SDS011;5864;52.998;9.068;2023-06-01T13:38:45;8.87;;;4.07;;
11616;SDS011;5864;52.998;9.068;2023-06-01T13:41:31;7.70;;;3.50;;
11616;SDS011;5864;52.998;9.068;2023-06-01T13:44:17;10.37;;;4.43;;
11616;SDS011;5864;52.998;9.068;2023-06-01T13:47:05;8.57;;;3.70;;
11616;SDS011;5864;52.998;9.068;2023-06-01T13:49:51;8.13;;;3.70;;
11616;SDS011;5864;52.998;9.068;2023-06-01T13:52:37;9.50;;;3.60;;
11616;SDS011;5864;52.998;9.068;2023-06-01T13:55:23;10.30;;;3.43;;
11616;SDS011;5864;52.998;9.068;2023-06-01T13:58:11;11.63;;;3.83;;
11616;SDS011;5864;52.998;9.068;2023-06-01T14:00:57;9.87;;;3.83;;
11616;SDS011;5864;52.998;9.068;2023-06-01T14:03:44;8.53;;;3.67;;
11616;SDS011;5864;52.998;9.068;2023-06-01T14:06:29;10.73;;;3.60;;
11616;SDS011;5864;52.998;9.068;2023-06-01T14:09:18;11.20;;;3.20;;
11616;SDS011;5864;52.998;9.068;2023-06-01T14:12:04;11.03;;;3.60;;
11616;SDS011;5864;52.998;9.068;2023-06-01T14:14:50;7.70;;;2.70;;
11616;SDS011;5864;52.998;9.068;2023-06-01T14:17:36;7.60;;;3.20;;
11616;SDS011;5864;52.998;9.068;2023-06-01T14:20:23;6.00;;;2.83;;
11616;SDS011;5864;52.998;9.068;2023-06-01T14:23:09;7.20;;;3.27;;
11616;SDS011;5864;52.998;9.068;2023-06-01T14:25:55;10.00;;;3.40;;
11616;SDS011;5864;52.998;9.068;2023-06-01T14:28:40;7.90;;;2.87;;
11616;SDS011;5864;52.998;9.068;2023-06-01T14:31:26;4.53;;;2.47;;
11616;SDS011;5864;52.998;9.068;2023-06-01T14:34:12;6.80;;;2.63;;
11616;SDS011;5864;52.998;9.068;2023-06-01T14:36:59;6.23;;;2.73;;
11616;SDS011;5864;52.998;9.068;2023-06-01T14:39:45;8.77;;;2.83;;
11616;SDS011;5864;52.998;9.068;2023-06-01T14:42:31;8.27;;;2.80;;
11616;SDS011;5864;52.998;9.068;2023-06-01T14:45:17;5.27;;;2.63;;
11616;SDS011;5864;52.998;9.068;2023-06-01T14:48:05;7.00;;;2.20;;
11616;SDS011;5864;52.998;9.068;2023-06-01T14:50:51;8.87;;;2.70;;
11616;SDS011;5864;52.998;9.068;2023-06-01T14:53:38;6.53;;;2.43;;
11616;SDS011;5864;52.998;9.068;2023-06-01T14:56:24;7.10;;;2.70;;
11616;SDS011;5864;52.998;9.068;2023-06-01T14:59:09;6.57;;;2.50;;
11616;SDS011;5864;52.998;9.068;2023-06-01T15:01:55;7.77;;;2.70;;
11616;SDS011;5864;52.998;9.068;2023-06-01T15:04:40;5.90;;;2.20;;
11616;SDS011;5864;52.998;9.068;2023-06-01T15:07:26;7.57;;;2.60;;
11616;SDS011;5864;52.998;9.068;2023-06-01T15:10:14;5.97;;;2.10;;
11616;SDS011;5864;52.998;9.068;2023-06-01T15:12:59;5.03;;;1.90;;
11616;SDS011;5864;52.998;9.068;2023-06-01T15:15:45;5.87;;;2.33;;
11616;SDS011;5864;52.998;9.068;2023-06-01T15:18:31;4.30;;;2.13;;
11616;SDS011;5864;52.998;9.068;2023-06-01T15:21:16;6.77;;;2.40;;
11616;SDS011;5864;52.998;9.068;2023-06-01T15:24:03;8.17;;;2.60;;
11616;SDS011;5864;52.998;9.068;2023-06-01T15:26:50;9.17;;;2.60;;
11616;SDS011;5864;52.998;9.068;2023-06-01T15:29:35;10.17;;;3.00;;
11616;SDS011;5864;52.998;9.068;2023-06-01T15:32:21;7.23;;;2.70;;
11616;SDS011;5864;52.998;9.068;2023-06-01T15:35:07;6.17;;;2.30;;
11616;SDS011;5864;52.998;9.068;2023-06-01T15:37:53;9.10;;;2.90;;
11616;SDS011;5864;52.998;9.068;2023-06-01T15:40:39;8.63;;;2.60;;
11616;SDS011;5864;52.998;9.068;2023-06-01T15:43:27;6.30;;;2.47;;
11616;SDS011;5864;52.998;9.068;2023-06-01T15:46:12;6.63;;;2.40;;
11616;SDS011;5864;52.998;9.068;2023-06-01T15:48:58;7.67;;;2.50;;
11616;SDS011;5864;52.998;9.068;2023-06-01T15:51:45;6.60;;;1.93;;
11616;SDS011;5864;52.998;9.068;2023-06-01T15:54:34;4.07;;;1.90;;
11616;SDS011;5864;52.998;9.068;2023-06-01T15:57:20;4.63;;;2.03;;
11616;SDS011;5864;52.998;9.068;2023-06-01T16:00:07;5.20;;;2.03;;
11616;SDS011;5864;52.998;9.068;2023-06-01T16:02:53;5.37;;;1.90;;
11616;SDS011;5864;52.998;9.068;2023-06-01T16:05:39;4.97;;;2.03;;
11616;SDS011;5864;52.998;9.068;2023-06-01T16:08:25;6.53;;;2.20;;
11616;SDS011;5864;52.998;9.068;2023-06-01T16:11:12;2.77;;;1.60;;
11616;SDS011;5864;52.998;9.068;2023-06-01T16:13:57;7.17;;;2.03;;
11616;SDS011;5864;52.998;9.068;2023-06-01T16:16:44;4.37;;;2.30;;
11616;SDS011;5864;52.998;9.068;2023-06-01T16:19:30;8.20;;;2.60;;
11616;SDS011;5864;52.998;9.068;2023-06-01T16:22:16;8.10;;;2.00;;
11616;SDS011;5864;52.998;9.068;2023-06-01T16:25:01;4.27;;;2.37;;
11616;SDS011;5864;52.998;9.068;2023-06-01T16:27:47;6.77;;;1.87;;
11616;SDS011;5864;52.998;9.068;2023-06-01T16:30:33;5.77;;;1.87;;
11616;SDS011;5864;52.998;9.068;2023-06-01T16:33:20;5.73;;;2.37;;
11616;SDS011;5864;52.998;9.068;2023-06-01T16:36:05;7.30;;;2.10;;
11616;SDS011;5864;52.998;9.068;2023-06-01T16:38:51;7.43;;;2.07;;
11616;SDS011;5864;52.998;9.068;2023-06-01T16:41:37;8.17;;;2.43;;
11616;SDS011;5864;52.998;9.068;2023-06-01T16:44:22;11.47;;;2.37;;
11616;SDS011;5864;52.998;9.068;2023-06-01T16:47:08;5.73;;;1.90;;
11616;SDS011;5864;52.998;9.068;2023-06-01T16:49:56;9.93;;;2.70;;
11616;SDS011;5864;52.998;9.068;2023-06-01T16:52:41;6.30;;;2.33;;
11616;SDS011;5864;52.998;9.068;2023-06-01T16:55:27;8.20;;;2.43;;
11616;SDS011;5864;52.998;9.068;2023-06-01T16:58:13;8.57;;;2.17;;
11616;SDS011;5864;52.998;9.068;2023-06-01T17:00:58;10.10;;;2.50;;
11616;SDS011;5864;52.998;9.068;2023-06-01T17:03:44;7.03;;;2.53;;